^^
B2 Weather Station Historical Data
Daily Summary for December 28, 2018 Units:  English    Metric   Both
Daily Weekly Monthly Yearly Custom
  High: Low: Average:
Temperature: 51.7 °F 27.2 °F 35.8 °F
Dew Point: 50.3 °F 24.5 °F 32.5 °F
Humidity: 95% 83% 88%
Wind Speed: 26.5mph 6.9mph 14.6mph
Wind Gust: 16.8mph - -
Wind- - West
Pressure: 30.19 in 29.64 in -
Precipitation: 0 in    
Historical Graphs
 
 
Tabular Data for December 28, 2018
Time Temperature Dew Point Pressure Wind Wind Speed Wind Gust Humidity Rainfall Rate (Hourly) solar
00:04 51.5 °F 50.1 °F 29.65 in South 15 mph 10 mph 95% 0 in 0.00 W/m2
00:09 51.6 °F 50.2 °F 29.65 in SSE 17.3 mph 6.8 mph 95% 0 in 0.00 W/m2
00:14 51.7 °F 50.3 °F 29.65 in SSW 15 mph 7.3 mph 95% 0 in 0.00 W/m2
00:19 51.7 °F 50.3 °F 29.65 in SSW 9.2 mph 6.6 mph 95% 0 in 0.00 W/m2
00:24 51.7 °F 50.3 °F 29.65 in SSE 12.7 mph 5.6 mph 95% 0 in 0.00 W/m2
00:29 51.6 °F 49.9 °F 29.65 in South 8.1 mph 6.9 mph 94% 0 in 0.00 W/m2
00:34 51.5 °F 49.8 °F 29.65 in South 15 mph 11.1 mph 94% 0 in 0.00 W/m2
00:39 51.3 °F 49.6 °F 29.65 in SSW 12.7 mph 6.4 mph 94% 0 in 0.00 W/m2
00:44 51.3 °F 49.9 °F 29.65 in SSW 15 mph 8.2 mph 95% 0 in 0.00 W/m2
00:49 51.2 °F 49.8 °F 29.64 in SW 13 mph 7.1 mph 95% 0 in 0.00 W/m2
00:54 51.2 °F 49.8 °F 29.64 in South 12.7 mph 8 mph 95% 0 in 0.00 W/m2
00:59 51.2 °F 49.8 °F 29.64 in South 13.8 mph 7.5 mph 95% 0 in 0.00 W/m2
01:04 51 °F 49.3 °F 29.65 in South 10.4 mph 6 mph 94% 0 in 0.00 W/m2
01:09 50.9 °F 49.2 °F 29.65 in SSW 14 mph 8 mph 94% 0 in 0.00 W/m2
01:14 50.9 °F 49.2 °F 29.65 in South 12.7 mph 5.3 mph 94% 0 in 0.00 W/m2
01:19 50.9 °F 49.2 °F 29.65 in SSE 17.3 mph 4.5 mph 94% 0 in 0.00 W/m2
01:24 50.9 °F 49.2 °F 29.65 in South 9.2 mph 5.7 mph 94% 0 in 0.00 W/m2
01:29 51 °F 49.3 °F 29.65 in SSW 11.5 mph 7 mph 94% 0 in 0.00 W/m2
01:34 51 °F 49.3 °F 29.65 in South 11.5 mph 7.7 mph 94% 0 in 0.00 W/m2
01:39 51.2 °F 49.5 °F 29.66 in South 12.7 mph 6.6 mph 94% 0 in 0.00 W/m2
01:44 51.4 °F 49.7 °F 29.66 in South 11.5 mph 6.7 mph 94% 0 in 0.00 W/m2
01:49 51.5 °F 49.8 °F 29.66 in SSW 11.5 mph 4.6 mph 94% 0 in 0.00 W/m2
01:54 51.5 °F 49.8 °F 29.66 in South 12.7 mph 8.6 mph 94% 0 in 0.00 W/m2
01:59 51.5 °F 49.8 °F 29.66 in SSW 12.7 mph 5.4 mph 94% 0 in 0.00 W/m2
02:04 51.5 °F 49.8 °F 29.66 in South 8.1 mph 6.4 mph 94% 0 in 0.00 W/m2
02:09 51.4 °F 49.7 °F 29.66 in SW 9.2 mph 6 mph 94% 0 in 0.00 W/m2
02:14 51.5 °F 49.8 °F 29.66 in South 8.1 mph 4.1 mph 94% 0 in 0.00 W/m2
02:19 51.4 °F 49.7 °F 29.66 in South 8.1 mph 4.5 mph 94% 0 in 0.00 W/m2
02:24 51.4 °F 49.7 °F 29.66 in SSE 10.4 mph 6.7 mph 94% 0 in 0.00 W/m2
02:29 51.4 °F 49.7 °F 29.66 in SSW 11.5 mph 6.2 mph 94% 0 in 0.00 W/m2
02:34 51.5 °F 49.8 °F 29.67 in South 15 mph 6.5 mph 94% 0 in 0.00 W/m2
02:39 51.5 °F 49.8 °F 29.67 in SSW 15 mph 8.2 mph 94% 0 in 0.00 W/m2
02:44 51.6 °F 49.9 °F 29.67 in South 19.6 mph 11.9 mph 94% 0 in 0.00 W/m2
02:49 51.7 °F 50 °F 29.67 in South 13.8 mph 6.3 mph 94% 0 in 0.00 W/m2
02:54 51.5 °F 49.8 °F 29.67 in SW 9.2 mph 5.5 mph 94% 0 in 0.00 W/m2
02:59 51.4 °F 49.7 °F 29.67 in WSW 9.2 mph 8 mph 94% 0 in 0.00 W/m2
03:04 51 °F 49 °F 29.67 in SW 12.7 mph 8.5 mph 93% 0 in 0.00 W/m2
03:09 50.5 °F 48 °F 29.67 in SSW 13.8 mph 8.6 mph 91% 0 in 0.00 W/m2
03:14 50.4 °F 47.6 °F 29.67 in SW 18.4 mph 4.7 mph 90% 0 in 0.00 W/m2
03:19 50.3 °F 47.2 °F 29.67 in SSW 11.5 mph 5.3 mph 89% 0 in 0.00 W/m2
03:24 50.1 °F 47 °F 29.67 in SW 9.2 mph 6 mph 89% 0 in 0.00 W/m2
03:29 49.9 °F 46.5 °F 29.67 in North 13.8 mph 7.1 mph 88% 0 in 0.00 W/m2
03:34 49.7 °F 46.3 °F 29.67 in South 11.5 mph 6.7 mph 88% 0 in 0.00 W/m2
03:39 49.4 °F 46 °F 29.67 in SSW 7 mph 4.3 mph 88% 0 in 0.00 W/m2
03:44 49.2 °F 45.8 °F 29.67 in SW 12.7 mph 6.8 mph 88% 0 in 0.00 W/m2
03:49 49 °F 45.6 °F 29.67 in SW 8.1 mph 7 mph 88% 0 in 0.00 W/m2
03:54 48.8 °F 45.4 °F 29.68 in North 13.8 mph 6.8 mph 88% 0 in 0.00 W/m2
03:59 48.6 °F 44.9 °F 29.68 in SSW 11.5 mph 10.4 mph 87% 0 in 0.00 W/m2
04:04 48.5 °F 44.8 °F 29.68 in SW 11.5 mph 5.5 mph 87% 0 in 0.00 W/m2
04:09 48.3 °F 44.6 °F 29.68 in SW 12.7 mph 5.8 mph 87% 0 in 0.00 W/m2
04:14 48.1 °F 44.1 °F 29.68 in SSW 13.8 mph 7.9 mph 86% 0 in 0.00 W/m2
04:19 47.9 °F 43.9 °F 29.69 in SW 12.7 mph 7.4 mph 86% 0 in 0.00 W/m2
04:24 47.8 °F 43.8 °F 29.69 in SW 10.4 mph 5.6 mph 86% 0 in 0.00 W/m2
04:29 47.4 °F 43.1 °F 29.69 in SW 11.5 mph 7.3 mph 85% 0 in 0.00 W/m2
04:34 47.1 °F 42.8 °F 29.69 in SW 18.4 mph 13.4 mph 85% 0 in 0.00 W/m2
04:39 46.8 °F 42.5 °F 29.69 in WSW 16 mph 10.6 mph 85% 0 in 0.00 W/m2
04:44 46.5 °F 41.9 °F 29.69 in North 19.6 mph 11.9 mph 84% 0 in 0.00 W/m2
04:49 46.1 °F 41.5 °F 29.69 in SSW 16.1 mph 11.7 mph 84% 0 in 0.00 W/m2
04:54 45.7 °F 41.1 °F 29.69 in WSW 11.5 mph 8.7 mph 84% 0 in 0.00 W/m2
04:59 45.1 °F 40.6 °F 29.69 in SW 21.9 mph 15.3 mph 84% 0 in 0.00 W/m2
05:04 44.5 °F 40 °F 29.70 in South 20.7 mph 13.3 mph 84% 0 in 0.00 W/m2
05:09 43.9 °F 39.1 °F 29.70 in North 25.3 mph 15.5 mph 83% 0 in 0.00 W/m2
05:14 43.5 °F 39 °F 29.70 in WSW 19.6 mph 11.8 mph 84% 0 in 0.00 W/m2
05:19 42.9 °F 38.7 °F 29.71 in SW 19.6 mph 13.6 mph 85% 0 in 0.00 W/m2
05:24 42.4 °F 38.2 °F 29.71 in West 21.9 mph 15.9 mph 85% 0 in 0.00 W/m2
05:29 42 °F 37.8 °F 29.71 in SW 15 mph 13.4 mph 85% 0 in 0.00 W/m2
05:34 41.8 °F 37.6 °F 29.71 in West 21 mph 11.2 mph 85% 0 in 0.00 W/m2
05:39 41.6 °F 37.4 °F 29.72 in WSW 12 mph 8.7 mph 85% 0 in 0.00 W/m2
05:44 41.3 °F 37.1 °F 29.72 in WSW 16.1 mph 11.1 mph 85% 0 in 0.00 W/m2
05:49 41 °F 37.1 °F 29.72 in SW 15 mph 7.6 mph 86% 0 in 0.00 W/m2
05:54 40.9 °F 37 °F 29.72 in WSW 11.5 mph 9.7 mph 86% 0 in 0.00 W/m2
05:59 40.6 °F 37 °F 29.72 in WSW 10.4 mph 8.5 mph 87% 0 in 0.00 W/m2
06:04 40.4 °F 36.8 °F 29.72 in SW 17.3 mph 10.1 mph 87% 0 in 0.00 W/m2
06:09 40.1 °F 36.8 °F 29.72 in WSW 18.4 mph 13 mph 88% 0 in 0.00 W/m2
06:14 40.1 °F 36.8 °F 29.73 in SW 13.8 mph 8.9 mph 88% 0 in 0.00 W/m2
06:19 40 °F 36.7 °F 29.72 in SW 11.5 mph 8.6 mph 88% 0 in 0.00 W/m2
06:24 39.8 °F 36.5 °F 29.72 in North 16.1 mph 11 mph 88% 0 in 0.00 W/m2
06:29 39.7 °F 36.7 °F 29.73 in WSW 19.6 mph 10.3 mph 89% 0 in 0.00 W/m2
06:34 39.6 °F 36.6 °F 29.72 in WSW 19.6 mph 14.7 mph 89% 0 in 0.00 W/m2
06:39 39.5 °F 36.5 °F 29.73 in WSW 15 mph 12 mph 89% 0 in 0.00 W/m2
06:44 39.5 °F 36.5 °F 29.73 in WSW 12.7 mph 9.2 mph 89% 0 in 0.00 W/m2
06:49 39.4 °F 36.4 °F 29.73 in SW 14 mph 12.7 mph 89% 0 in 0.00 W/m2
06:54 39.2 °F 35.9 °F 29.74 in SSW 12.7 mph 7 mph 88% 0 in 0.00 W/m2
06:59 39 °F 35.5 °F 29.75 in South 15 mph 8.1 mph 87% 0 in 0.00 W/m2
07:04 38.9 °F 35.4 °F 29.75 in SSW 19.6 mph 10.5 mph 87% 0 in 0.00 W/m2
07:09 38.8 °F 35.3 °F 29.75 in WSW 15 mph 8 mph 87% 0 in 0.00 W/m2
07:14 38.7 °F 35.2 °F 29.75 in WSW 13.8 mph 7.6 mph 87% 0 in 0.00 W/m2
07:19 38.6 °F 35.1 °F 29.76 in WSW 11.5 mph 7.4 mph 87% 0 in 0.00 W/m2
07:24 38.4 °F 34.9 °F 29.77 in North 16 mph 12 mph 87% 0 in 0.00 W/m2
07:29 38 °F 34.2 °F 29.77 in WSW 19.6 mph 13.3 mph 86% 0 in 0.00 W/m2
07:34 37.7 °F 33.9 °F 29.78 in SSW 21.9 mph 14.1 mph 86% 0 in 0.00 W/m2
07:39 37.5 °F 34 °F 29.78 in SW 18.4 mph 14.9 mph 87% 0 in 0.00 W/m2
07:44 37.4 °F 33.9 °F 29.78 in SW 16.1 mph 13.7 mph 87% 0 in 0.00 W/m2
07:49 37.2 °F 33.7 °F 29.78 in WSW 19.6 mph 12.3 mph 87% 0 in 0.00 W/m2
07:54 37 °F 33.8 °F 29.79 in SSW 13.8 mph 9.2 mph 88% 0 in 0.00 W/m2
07:59 36.8 °F 33.6 °F 29.80 in SW 16.1 mph 10.1 mph 88% 0 in 5.00 W/m2
08:04 36.1 °F 32.9 °F 29.80 in SW 16.1 mph 7.9 mph 88% 0 in 7.00 W/m2
08:09 35.6 °F 32.7 °F 29.80 in North 9.2 mph 8 mph 89% 0 in 7.00 W/m2
08:14 35.1 °F 32.2 °F 29.80 in North 19.6 mph 9.4 mph 89% 0 in 9.00 W/m2
08:19 34.6 °F 31.7 °F 29.80 in SW 20.7 mph 12.4 mph 89% 0 in 12.00 W/m2
08:24 34.4 °F 31.5 °F 29.80 in WSW 17.3 mph 11.5 mph 89% 0 in 12.00 W/m2
08:29 34.4 °F 31.5 °F 29.80 in SW 16.1 mph 9.7 mph 89% 0 in 12.00 W/m2
08:34 34.3 °F 31.4 °F 29.81 in WSW 11.5 mph 5.2 mph 89% 0 in 16.00 W/m2
08:39 34.2 °F 31.3 °F 29.81 in WSW 18.4 mph 11.8 mph 89% 0 in 19.00 W/m2
08:44 34.1 °F 30.9 °F 29.82 in North 20.7 mph 16.8 mph 88% 0 in 19.00 W/m2
08:49 34 °F 30.8 °F 29.82 in WSW 16.1 mph 7.5 mph 88% 0 in 25.00 W/m2
08:54 33.8 °F 30.6 °F 29.82 in WSW 16.1 mph 8.5 mph 88% 0 in 19.00 W/m2
08:59 33.5 °F 30.6 °F 29.82 in WSW 12.7 mph 5.8 mph 89% 0 in 25.00 W/m2
09:04 33.4 °F 30.5 °F 29.82 in North 12.7 mph 4.6 mph 89% 0 in 35.00 W/m2
09:09 33.2 °F 30.3 °F 29.83 in SW 17.3 mph 9.5 mph 89% 0 in 44.00 W/m2
09:14 33 °F 30.1 °F 29.83 in SW 13.8 mph 8.7 mph 89% 0 in 28.00 W/m2
09:19 32.9 °F 30 °F 29.84 in WSW 16.1 mph 11.7 mph 89% 0 in 26.00 W/m2
09:24 32.7 °F 29.8 °F 29.84 in North 13.8 mph 5.5 mph 89% 0 in 25.00 W/m2
09:29 32.6 °F 29.7 °F 29.85 in North 26.5 mph 12.4 mph 89% 0 in 39.00 W/m2
09:34 32.7 °F 29.8 °F 29.85 in WSW 24.2 mph 10.3 mph 89% 0 in 37.00 W/m2
09:39 32.7 °F 29.5 °F 29.85 in North 19.6 mph 9.4 mph 88% 0 in 23.00 W/m2
09:44 32.6 °F 29.4 °F 29.85 in North 10.4 mph 6.6 mph 88% 0 in 23.00 W/m2
09:49 32.5 °F 29.3 °F 29.85 in WSW 16.1 mph 8.2 mph 88% 0 in 28.00 W/m2
09:54 32.5 °F 29.3 °F 29.85 in WSW 16.1 mph 10.9 mph 88% 0 in 35.00 W/m2
09:59 32.5 °F 29.3 °F 29.85 in North 15 mph 10.3 mph 88% 0 in 39.00 W/m2
10:04 32.4 °F 29 °F 29.85 in WSW 17.3 mph 8.1 mph 87% 0 in 37.00 W/m2
10:09 32.3 °F 29.1 °F 29.85 in SW 15 mph 10.7 mph 88% 0 in 37.00 W/m2
10:14 32.1 °F 28.9 °F 29.85 in SSW 19.6 mph 12.1 mph 88% 0 in 40.00 W/m2
10:19 31.9 °F 28.5 °F 29.85 in SW 19.6 mph 12.2 mph 87% 0 in 42.00 W/m2
10:24 31.7 °F 28.3 °F 29.85 in North 18.4 mph 14 mph 87% 0 in 51.00 W/m2
10:29 31.7 °F 28.3 °F 29.85 in WSW 13 mph 8.6 mph 87% 0 in 53.00 W/m2
10:34 31.6 °F 28.2 °F 29.85 in North 16.1 mph 10 mph 87% 0 in 56.00 W/m2
10:39 31.6 °F 28.2 °F 29.85 in WSW 12 mph 11.3 mph 87% 0 in 98.00 W/m2
10:44 31.7 °F 28.3 °F 29.85 in WSW 13.8 mph 8.4 mph 87% 0 in 121.00 W/m2
10:49 31.9 °F 28.5 °F 29.85 in WSW 12.7 mph 8.1 mph 87% 0 in 91.00 W/m2
10:54 32 °F 28.3 °F 29.85 in West 15 mph 8.2 mph 86% 0 in 88.00 W/m2
10:59 32 °F 28 °F 29.85 in WSW 18.4 mph 8.2 mph 85% 0 in 77.00 W/m2
11:04 32.2 °F 28.5 °F 29.85 in North 11.5 mph 5.9 mph 86% 0 in 84.00 W/m2
11:09 32.3 °F 28.3 °F 29.85 in North 15 mph 8.7 mph 85% 0 in 95.00 W/m2
11:14 32.4 °F 28.4 °F 29.84 in WSW 13.8 mph 9.4 mph 85% 0 in 109.00 W/m2
11:19 32.3 °F 28.3 °F 29.85 in North 12.7 mph 8.1 mph 85% 0 in 93.00 W/m2
11:24 32.4 °F 28.7 °F 29.85 in SW 11.5 mph 9 mph 86% 0 in 88.00 W/m2
11:29 32.2 °F 28.5 °F 29.85 in WSW 16.1 mph 12.5 mph 86% 0 in 56.00 W/m2
11:34 31.9 °F 28.5 °F 29.85 in WSW 15 mph 12.6 mph 87% 0 in 70.00 W/m2
11:39 31.8 °F 28.7 °F 29.86 in North 14 mph 10 mph 88% 0 in 62.00 W/m2
11:44 31.7 °F 28.3 °F 29.86 in WSW 13.8 mph 9 mph 87% 0 in 65.00 W/m2
11:49 31.7 °F 28.3 °F 29.86 in SW 18.4 mph 9.1 mph 87% 0 in 67.00 W/m2
11:54 31.6 °F 28.2 °F 29.85 in WSW 16.1 mph 8.7 mph 87% 0 in 69.00 W/m2
11:59 31.5 °F 28.1 °F 29.85 in WSW 17.3 mph 12.2 mph 87% 0 in 51.00 W/m2
12:04 31.3 °F 28.2 °F 29.85 in North 17.3 mph 11.1 mph 88% 0 in 58.00 W/m2
12:09 31.4 °F 28.3 °F 29.85 in WSW 15 mph 11.1 mph 88% 0 in 72.00 W/m2
12:14 31.4 °F 27.7 °F 29.86 in North 18.4 mph 12.6 mph 86% 0 in 190.00 W/m2
12:19 31.7 °F 27.7 °F 29.86 in SW 16.1 mph 10.3 mph 85% 0 in 95.00 W/m2
12:24 31.7 °F 27.4 °F 29.85 in SW 15 mph 9.3 mph 84% 0 in 100.00 W/m2
12:29 31.7 °F 27.1 °F 29.86 in North 19 mph 14.2 mph 83% 0 in 74.00 W/m2
12:34 31.7 °F 27.1 °F 29.86 in SW 17.3 mph 10.6 mph 83% 0 in 72.00 W/m2
12:39 31.7 °F 27.1 °F 29.87 in North 15 mph 10 mph 83% 0 in 65.00 W/m2
12:44 31.8 °F 27.2 °F 29.87 in North 13.8 mph 9.5 mph 83% 0 in 86.00 W/m2
12:49 31.7 °F 27.1 °F 29.87 in North 16.1 mph 9.2 mph 83% 0 in 121.00 W/m2
12:54 31.8 °F 27.2 °F 29.87 in North 17.3 mph 11.5 mph 83% 0 in 111.00 W/m2
12:59 31.9 °F 27.3 °F 29.87 in WSW 16.1 mph 8.7 mph 83% 0 in 109.00 W/m2
13:04 31.9 °F 27.3 °F 29.87 in West 11.5 mph 6.8 mph 83% 0 in 91.00 W/m2
13:09 31.9 °F 27.3 °F 29.88 in SW 18.4 mph 8.2 mph 83% 0 in 79.00 W/m2
13:14 31.7 °F 27.1 °F 29.88 in SW 16.1 mph 11.7 mph 83% 0 in 105.00 W/m2
13:19 31.7 °F 27.4 °F 29.88 in WSW 11.5 mph 9.3 mph 84% 0 in 79.00 W/m2
13:24 31.8 °F 27.2 °F 29.89 in SW 13.8 mph 8.1 mph 83% 0 in 79.00 W/m2
13:29 31.7 °F 27.1 °F 29.89 in West 16.1 mph 11.4 mph 83% 0 in 60.00 W/m2
13:34 31.7 °F 27.4 °F 29.89 in SW 10.4 mph 10 mph 84% 0 in 118.00 W/m2
13:39 31.7 °F 27.4 °F 29.90 in North 11.5 mph 9.8 mph 84% 0 in 83.00 W/m2
13:44 31.7 °F 27.4 °F 29.90 in WSW 12.7 mph 8.2 mph 84% 0 in 65.00 W/m2
13:49 31.7 °F 27.1 °F 29.89 in North 17.3 mph 10.1 mph 83% 0 in 84.00 W/m2
13:54 31.7 °F 27.1 °F 29.90 in WSW 15 mph 8.9 mph 83% 0 in 70.00 W/m2
13:59 31.6 °F 27.3 °F 29.91 in WSW 13.8 mph 10 mph 84% 0 in 51.00 W/m2
14:04 31.6 °F 27.3 °F 29.91 in WSW 16.1 mph 9.1 mph 84% 0 in 40.00 W/m2
14:09 31.5 °F 27.2 °F 29.91 in WSW 19.6 mph 14.8 mph 84% 0 in 44.00 W/m2
14:14 31.5 °F 27.2 °F 29.92 in WSW 18.4 mph 11.3 mph 84% 0 in 58.00 W/m2
14:19 31.4 °F 27.1 °F 29.92 in North 17.3 mph 10.7 mph 84% 0 in 44.00 W/m2
14:24 31.4 °F 27.1 °F 29.93 in North 15 mph 14.3 mph 84% 0 in 42.00 W/m2
14:29 31.5 °F 27.2 °F 29.93 in SW 13.8 mph 12.1 mph 84% 0 in 35.00 W/m2
14:34 31.4 °F 27.4 °F 29.93 in North 17.3 mph 13.8 mph 85% 0 in 30.00 W/m2
14:39 31.3 °F 27.3 °F 29.93 in South 17.3 mph 8.8 mph 85% 0 in 42.00 W/m2
14:44 31.4 °F 27.4 °F 29.93 in West 11.5 mph 7 mph 85% 0 in 39.00 W/m2
14:49 31.2 °F 26.9 °F 29.93 in North 21.9 mph 11.5 mph 84% 0 in 39.00 W/m2
14:54 31.2 °F 26.9 °F 29.94 in North 20.7 mph 9.1 mph 84% 0 in 37.00 W/m2
14:59 31.2 °F 26.9 °F 29.94 in WSW 12.7 mph 7.8 mph 84% 0 in 28.00 W/m2
15:04 31.2 °F 27.2 °F 29.95 in SW 9.2 mph 8.9 mph 85% 0 in 23.00 W/m2
15:09 31.3 °F 27.3 °F 29.95 in North 15 mph 10.6 mph 85% 0 in 25.00 W/m2
15:14 31 °F 26.7 °F 29.95 in North 23 mph 10.4 mph 84% 0 in 42.00 W/m2
15:19 31 °F 26.7 °F 29.96 in WSW 12.7 mph 9.1 mph 84% 0 in 37.00 W/m2
15:24 31.1 °F 26.8 °F 29.96 in SSW 19.6 mph 11.6 mph 84% 0 in 32.00 W/m2
15:29 31 °F 26.7 °F 29.96 in North 19.6 mph 14.1 mph 84% 0 in 26.00 W/m2
15:34 31 °F 26.7 °F 29.96 in SW 19.6 mph 12.8 mph 84% 0 in 26.00 W/m2
15:39 31 °F 26.7 °F 29.97 in North 12.7 mph 11.2 mph 84% 0 in 16.00 W/m2
15:44 31 °F 26.7 °F 29.97 in North 16.1 mph 7.9 mph 84% 0 in 18.00 W/m2
15:49 30.9 °F 26.6 °F 29.97 in North 13.8 mph 14.1 mph 84% 0 in 12.00 W/m2
15:54 30.8 °F 26.5 °F 29.97 in North 19.6 mph 11.3 mph 84% 0 in 18.00 W/m2
15:59 30.8 °F 26.5 °F 29.97 in WSW 18.4 mph 11.6 mph 84% 0 in 14.00 W/m2
16:04 30.8 °F 26.5 °F 29.97 in North 11.5 mph 11 mph 84% 0 in 12.00 W/m2
16:09 30.8 °F 26.5 °F 29.98 in North 18.4 mph 8.6 mph 84% 0 in 11.00 W/m2
16:14 30.8 °F 26.5 °F 29.98 in SW 9 mph 6.1 mph 84% 0 in 5.00 W/m2
16:19 30.7 °F 26.4 °F 29.98 in SW 15 mph 8.6 mph 84% 0 in 0.00 W/m2
16:24 30.7 °F 26.4 °F 29.98 in SSW 11.5 mph 9.9 mph 84% 0 in 0.00 W/m2
16:29 30.7 °F 26.4 °F 29.99 in North 19.6 mph 9.5 mph 84% 0 in 0.00 W/m2
16:34 30.7 °F 26.4 °F 29.99 in North 12.7 mph 7.6 mph 84% 0 in 0.00 W/m2
16:39 30.7 °F 26.4 °F 29.99 in SW 11.5 mph 7.8 mph 84% 0 in 0.00 W/m2
16:44 30.7 °F 26.7 °F 30.00 in North 11.5 mph 5 mph 85% 0 in 0.00 W/m2
16:49 30.6 °F 26.6 °F 30.00 in North 15 mph 4.6 mph 85% 0 in 0.00 W/m2
16:54 30.6 °F 26.6 °F 30.00 in North 11.5 mph 7.6 mph 85% 0 in 0.00 W/m2
16:59 30.5 °F 26.5 °F 30.00 in North 11.5 mph 8.2 mph 85% 0 in 0.00 W/m2
17:04 30.5 °F 26.5 °F 30.01 in SW 15 mph 9.2 mph 85% 0 in 0.00 W/m2
17:09 30.5 °F 26.8 °F 30.02 in North 14 mph 8.6 mph 86% 0 in 0.00 W/m2
17:14 30.4 °F 26.4 °F 30.02 in North 15 mph 8 mph 85% 0 in 0.00 W/m2
17:19 30.4 °F 26.7 °F 30.02 in North 16.1 mph 5.5 mph 86% 0 in 0.00 W/m2
17:24 30.4 °F 26.7 °F 30.02 in WSW 11.5 mph 5.5 mph 86% 0 in 0.00 W/m2
17:29 30.3 °F 26.6 °F 30.02 in North 15 mph 11.8 mph 86% 0 in 0.00 W/m2
17:34 30.2 °F 26.5 °F 30.03 in North 16 mph 15.1 mph 86% 0 in 0.00 W/m2
17:39 30.3 °F 26.6 °F 30.03 in North 17.3 mph 8.3 mph 86% 0 in 0.00 W/m2
17:44 30.3 °F 26.6 °F 30.03 in North 14 mph 7.2 mph 86% 0 in 0.00 W/m2
17:49 30.3 °F 26.6 °F 30.03 in North 13.8 mph 13.1 mph 86% 0 in 0.00 W/m2
17:54 30.3 °F 26.6 °F 30.04 in North 15 mph 7.1 mph 86% 0 in 0.00 W/m2
17:59 30.3 °F 26.6 °F 30.04 in North 13.8 mph 6.7 mph 86% 0 in 0.00 W/m2
18:04 30.2 °F 26.5 °F 30.04 in North 11.5 mph 7.1 mph 86% 0 in 0.00 W/m2
18:09 30.3 °F 26.6 °F 30.04 in SW 13.8 mph 8.6 mph 86% 0 in 0.00 W/m2
18:14 30.3 °F 26.9 °F 30.04 in North 11.5 mph 9.3 mph 87% 0 in 0.00 W/m2
18:19 30.3 °F 26.9 °F 30.04 in North 13.8 mph 6.4 mph 87% 0 in 0.00 W/m2
18:24 30.2 °F 26.5 °F 30.04 in WSW 20.7 mph 12.5 mph 86% 0 in 0.00 W/m2
18:29 30 °F 26 °F 30.04 in WSW 16.1 mph 8.2 mph 85% 0 in 0.00 W/m2
18:34 29.9 °F 25.9 °F 30.05 in North 19.6 mph 11.7 mph 85% 0 in 0.00 W/m2
18:39 29.9 °F 25.9 °F 30.05 in North 11.5 mph 7.8 mph 85% 0 in 0.00 W/m2
18:44 29.9 °F 25.9 °F 30.06 in SW 15 mph 8.4 mph 85% 0 in 0.00 W/m2
18:49 29.9 °F 25.9 °F 30.06 in North 15 mph 10.6 mph 85% 0 in 0.00 W/m2
18:54 29.9 °F 26.2 °F 30.06 in WSW 12.7 mph 8.9 mph 86% 0 in 0.00 W/m2
18:59 29.9 °F 26.2 °F 30.07 in North 13.8 mph 9.6 mph 86% 0 in 0.00 W/m2
19:04 29.7 °F 26 °F 30.06 in North 19.6 mph 12.7 mph 86% 0 in 0.00 W/m2
19:09 29.6 °F 25.9 °F 30.06 in North 13.8 mph 10.1 mph 86% 0 in 0.00 W/m2
19:14 29.6 °F 25.9 °F 30.07 in North 17.3 mph 7.3 mph 86% 0 in 0.00 W/m2
19:19 29.5 °F 26.1 °F 30.07 in WSW 12.7 mph 5.8 mph 87% 0 in 0.00 W/m2
19:24 29.5 °F 26.1 °F 30.07 in North 15 mph 9.1 mph 87% 0 in 0.00 W/m2
19:29 29.4 °F 26 °F 30.07 in North 18.4 mph 7.9 mph 87% 0 in 0.00 W/m2
19:34 29.4 °F 26 °F 30.07 in SW 12.7 mph 9.8 mph 87% 0 in 0.00 W/m2
19:39 29.3 °F 25.9 °F 30.07 in SW 19.6 mph 11.4 mph 87% 0 in 0.00 W/m2
19:44 29.2 °F 25.8 °F 30.07 in North 18.4 mph 10 mph 87% 0 in 0.00 W/m2
19:49 29.1 °F 25.7 °F 30.08 in SSW 16.1 mph 12.6 mph 87% 0 in 0.00 W/m2
19:54 29 °F 25.9 °F 30.08 in SW 18.4 mph 11 mph 88% 0 in 0.00 W/m2
19:59 28.9 °F 25.8 °F 30.08 in North 15 mph 10.5 mph 88% 0 in 0.00 W/m2
20:04 28.9 °F 25.8 °F 30.09 in North 12.7 mph 9.3 mph 88% 0 in 0.00 W/m2
20:09 28.9 °F 25.8 °F 30.09 in WSW 17.3 mph 10.7 mph 88% 0 in 0.00 W/m2
20:14 28.9 °F 25.8 °F 30.09 in North 11.5 mph 10.5 mph 88% 0 in 0.00 W/m2
20:19 28.8 °F 26 °F 30.09 in North 11.5 mph 7.5 mph 89% 0 in 0.00 W/m2
20:24 28.7 °F 25.9 °F 30.09 in North 16.1 mph 9.9 mph 89% 0 in 0.00 W/m2
20:29 28.8 °F 26 °F 30.09 in North 18.4 mph 10.7 mph 89% 0 in 0.00 W/m2
20:34 28.8 °F 26 °F 30.09 in North 13.8 mph 6.7 mph 89% 0 in 0.00 W/m2
20:39 28.7 °F 25.9 °F 30.10 in North 10.4 mph 9.3 mph 89% 0 in 0.00 W/m2
20:44 28.7 °F 25.9 °F 30.10 in SW 12.7 mph 8.5 mph 89% 0 in 0.00 W/m2
20:49 28.6 °F 25.8 °F 30.10 in WNW 15 mph 7.1 mph 89% 0 in 0.00 W/m2
20:54 28.5 °F 25.9 °F 30.10 in SW 16.1 mph 7.3 mph 90% 0 in 0.00 W/m2
20:59 28.5 °F 25.9 °F 30.11 in North 19.6 mph 10.8 mph 90% 0 in 0.00 W/m2
21:04 28.5 °F 25.9 °F 30.11 in North 11.5 mph 5.4 mph 90% 0 in 0.00 W/m2
21:09 28.4 °F 25.8 °F 30.11 in WSW 12.7 mph 7.8 mph 90% 0 in 0.00 W/m2
21:14 28.3 °F 25.7 °F 30.11 in SW 13.8 mph 11.5 mph 90% 0 in 0.00 W/m2
21:19 28.3 °F 25.7 °F 30.12 in North 15 mph 8.8 mph 90% 0 in 0.00 W/m2
21:24 28.3 °F 25.7 °F 30.12 in North 13.8 mph 11.1 mph 90% 0 in 0.00 W/m2
21:29 28.3 °F 25.7 °F 30.12 in WSW 11 mph 4.2 mph 90% 0 in 0.00 W/m2
21:34 28.3 °F 25.7 °F 30.12 in SW 12.7 mph 8.4 mph 90% 0 in 0.00 W/m2
21:39 28.3 °F 25.7 °F 30.12 in WSW 12.7 mph 6.8 mph 90% 0 in 0.00 W/m2
21:44 28.3 °F 25.7 °F 30.12 in North 12.7 mph 7.3 mph 90% 0 in 0.00 W/m2
21:49 28.2 °F 25.6 °F 30.12 in SW 10.4 mph 6.3 mph 90% 0 in 0.00 W/m2
21:54 28.2 °F 25.6 °F 30.13 in North 11.5 mph 8.4 mph 90% 0 in 0.00 W/m2
21:59 28 °F 25.4 °F 30.13 in SW 12.7 mph 5.5 mph 90% 0 in 0.00 W/m2
22:04 28 °F 25.7 °F 30.13 in WSW 15 mph 6 mph 91% 0 in 0.00 W/m2
22:09 27.9 °F 25.6 °F 30.14 in North 13.8 mph 6.1 mph 91% 0 in 0.00 W/m2
22:14 27.8 °F 25.5 °F 30.14 in SW 15 mph 7.9 mph 91% 0 in 0.00 W/m2
22:19 27.8 °F 25.5 °F 30.14 in North 13.8 mph 9.1 mph 91% 0 in 0.00 W/m2
22:24 27.8 °F 25.5 °F 30.14 in WSW 12.7 mph 6.7 mph 91% 0 in 0.00 W/m2
22:29 27.7 °F 25.2 °F 30.14 in North 11.5 mph 6.4 mph 90% 0 in 0.00 W/m2
22:34 27.7 °F 25.2 °F 30.15 in North 6.9 mph 4.1 mph 90% 0 in 0.00 W/m2
22:39 27.8 °F 25.2 °F 30.15 in SW 8.1 mph 5 mph 90% 0 in 0.00 W/m2
22:44 27.8 °F 25 °F 30.15 in West 11.5 mph 6.7 mph 89% 0 in 0.00 W/m2
22:49 27.8 °F 25 °F 30.16 in North 11.5 mph 8 mph 89% 0 in 0.00 W/m2
22:54 27.7 °F 24.9 °F 30.16 in North 11 mph 8.2 mph 89% 0 in 0.00 W/m2
22:59 27.6 °F 24.8 °F 30.16 in WSW 15 mph 8.6 mph 89% 0 in 0.00 W/m2
23:04 27.6 °F 24.8 °F 30.16 in WNW 12.7 mph 8.5 mph 89% 0 in 0.00 W/m2
23:09 27.6 °F 24.8 °F 30.17 in North 13.8 mph 6.3 mph 89% 0 in 0.00 W/m2
23:14 27.6 °F 24.8 °F 30.17 in SW 11.5 mph 6.5 mph 89% 0 in 0.00 W/m2
23:19 27.5 °F 24.7 °F 30.17 in SSW 13.8 mph 8.3 mph 89% 0 in 0.00 W/m2
23:24 27.4 °F 24.6 °F 30.17 in West 13 mph 6.2 mph 89% 0 in 0.00 W/m2
23:29 27.4 °F 24.6 °F 30.17 in North 8.1 mph 4.9 mph 89% 0 in 0.00 W/m2
23:34 27.4 °F 24.6 °F 30.17 in West 11.5 mph 6.8 mph 89% 0 in 0.00 W/m2
23:39 27.4 °F 24.6 °F 30.18 in WNW 10.4 mph 8 mph 89% 0 in 0.00 W/m2
23:44 27.3 °F 24.5 °F 30.18 in WNW 10.4 mph 7.2 mph 89% 0 in 0.00 W/m2
23:49 27.4 °F 24.9 °F 30.19 in North 9.2 mph 6.1 mph 90% 0 in 0.00 W/m2
23:54 27.4 °F 24.9 °F 30.19 in SW 8.1 mph 4.3 mph 90% 0 in 0.00 W/m2
23:59 27.2 °F 24.7 °F 30.19 in WSW 10.4 mph 4.8 mph 90% 0 in 0.00 W/m2
Bourbonnais, Illinois, USA
Compliments of Weather Underground - 4 mb